Time;durP1;ratioP1;P1;durP2;ratioP2;P2;SDS_P1;SDS_P2;PMS_P1;PMS_P2;Temp;Humidity;BMP_temperature;BMP_pressure;BME280_temperature;BME280_humidity;BME280_pressure;Samples;Min_cycle;Max_cycle;Signal;HPM_P1;HPM_P2
2021/03/13 00:01:54;;;;;;;0.85;0.85;;;4.80;99.90;;;;;;5110268;28;20194;-83
2021/03/13 00:04:20;;;;;;;1.38;1.27;;;4.90;99.90;;;;;;5107952;28;20198;-82
2021/03/13 00:06:46;;;;;;;0.88;0.82;;;4.90;99.90;;;;;;5109880;28;20519;-82
2021/03/13 00:09:13;;;;;;;1.33;1.10;;;4.90;99.90;;;;;;5110321;28;20205;-83
2021/03/13 00:11:40;;;;;;;2.35;1.38;;;5.00;99.90;;;;;;5110335;28;20198;-84
2021/03/13 00:14:07;;;;;;;4.82;1.48;;;5.10;99.90;;;;;;5108847;28;20379;-84
2021/03/13 00:16:33;;;;;;;1.25;1.20;;;5.10;99.90;;;;;;5108787;28;20197;-83
2021/03/13 00:19:00;;;;;;;1.50;1.40;;;5.00;99.90;;;;;;5110203;28;20194;-83
2021/03/13 00:21:26;;;;;;;1.77;1.10;;;5.10;99.90;;;;;;5110292;28;20747;-83
2021/03/13 00:23:55;;;;;;;2.30;1.52;;;5.20;99.90;;;;;;5109049;28;20677;-83
2021/03/13 00:26:21;;;;;;;1.10;1.10;;;5.40;99.90;;;;;;5107021;28;20190;-83
2021/03/13 00:28:49;;;;;;;2.28;1.20;;;5.40;99.90;;;;;;5107757;28;20198;-83
2021/03/13 00:31:16;;;;;;;1.02;1.02;;;5.30;99.90;;;;;;5108592;28;20202;-83
2021/03/13 00:33:43;;;;;;;1.70;1.15;;;5.30;99.90;;;;;;5109066;28;20194;-84
2021/03/13 00:36:10;;;;;;;1.30;1.20;;;5.30;99.90;;;;;;5109092;28;20207;-83
2021/03/13 00:38:36;;;;;;;2.45;0.98;;;5.30;99.90;;;;;;5106359;28;20604;-83
2021/03/13 00:41:03;;;;;;;1.30;1.10;;;5.20;99.90;;;;;;5109188;27;20213;-83
2021/03/13 00:43:30;;;;;;;1.52;1.42;;;5.20;99.90;;;;;;5109181;28;20720;-84
2021/03/13 00:45:57;;;;;;;1.38;1.10;;;5.40;99.90;;;;;;5108595;28;20688;-84
2021/03/13 00:48:23;;;;;;;2.75;1.30;;;5.40;99.90;;;;;;5109467;28;20243;-84
2021/03/13 00:50:50;;;;;;;2.70;1.63;;;5.10;99.90;;;;;;5109479;28;20576;-84
2021/03/13 00:53:16;;;;;;;1.92;0.85;;;5.10;99.90;;;;;;5108285;28;20574;-84
2021/03/13 00:55:43;;;;;;;1.00;0.95;;;5.00;99.90;;;;;;5109714;28;20194;-85
2021/03/13 00:58:09;;;;;;;0.70;0.65;;;4.90;99.90;;;;;;5108900;28;20194;-84
2021/03/13 01:00:37;;;;;;;0.68;0.68;;;4.80;99.90;;;;;;5108532;28;20717;-84
2021/03/13 01:03:05;;;;;;;0.70;0.70;;;4.80;99.90;;;;;;5107419;28;20194;-84
2021/03/13 01:05:34;;;;;;;1.13;0.60;;;4.80;99.90;;;;;;5108012;28;20197;-83
2021/03/13 01:08:01;;;;;;;1.40;0.80;;;4.80;99.90;;;;;;5108739;28;20251;-83
2021/03/13 01:10:32;;;;;;;2.83;0.90;;;4.80;99.90;;;;;;5109546;28;20226;-83
2021/03/13 01:12:59;;;;;;;1.27;0.55;;;4.70;99.90;;;;;;5107675;28;20267;-82
2021/03/13 01:15:26;;;;;;;0.90;0.65;;;4.80;99.90;;;;;;5108310;28;20192;-81
2021/03/13 01:17:53;;;;;;;0.63;0.63;;;4.70;99.90;;;;;;5109042;28;20190;-82
2021/03/13 01:20:22;;;;;;;1.25;0.68;;;4.70;99.90;;;;;;5109049;28;20209;-83
2021/03/13 01:22:48;;;;;;;0.50;0.47;;;4.80;99.90;;;;;;5107983;28;20197;-82
2021/03/13 01:25:16;;;;;;;0.68;0.68;;;4.90;99.90;;;;;;5108467;28;20206;-83
2021/03/13 01:27:44;;;;;;;0.93;0.60;;;5.00;99.90;;;;;;5106062;28;20202;-83
2021/03/13 01:30:12;;;;;;;0.60;0.60;;;5.30;99.90;;;;;;5108975;28;20216;-82
2021/03/13 01:32:39;;;;;;;1.10;0.73;;;5.20;99.90;;;;;;5107719;28;20198;-82
2021/03/13 01:35:07;;;;;;;2.17;0.75;;;5.20;99.90;;;;;;5108185;28;20194;-82
2021/03/13 01:37:35;;;;;;;4.15;1.10;;;5.20;99.90;;;;;;5107764;28;20239;-82
2021/03/13 01:40:01;;;;;;;1.13;0.98;;;5.20;99.90;;;;;;5105065;28;20228;-82
2021/03/13 01:42:28;;;;;;;1.30;0.93;;;5.10;99.90;;;;;;5108900;28;20182;-82
2021/03/13 01:44:54;;;;;;;1.33;0.70;;;5.20;99.90;;;;;;5108374;28;20654;-83
2021/03/13 01:47:23;;;;;;;1.60;1.50;;;5.30;99.90;;;;;;5108683;28;20208;-83
2021/03/13 01:49:51;;;;;;;1.25;0.90;;;5.40;99.90;;;;;;5108761;28;20639;-82
2021/03/13 01:52:18;;;;;;;1.30;1.00;;;5.40;99.90;;;;;;5108681;28;20204;-83
2021/03/13 01:54:47;;;;;;;1.30;1.20;;;5.40;99.90;;;;;;5107336;28;20182;-83
2021/03/13 01:57:14;;;;;;;0.90;0.90;;;5.40;99.90;;;;;;5108486;28;20659;-83
2021/03/13 01:59:41;;;;;;;0.98;0.98;;;5.40;99.90;;;;;;5108309;28;20221;-83
2021/03/13 02:02:09;;;;;;;1.42;1.02;;;5.40;99.90;;;;;;5107156;28;20382;-83
2021/03/13 02:04:36;;;;;;;6.78;1.60;;;5.60;99.90;;;;;;5107233;28;20190;-83
2021/03/13 02:07:11;;;;;;;2.63;1.80;;;5.60;99.90;;;;;;5105254;28;20773;-83
2021/03/13 02:09:50;;;;;;;1.55;1.45;;;5.50;99.90;;;;;;5105032;28;20194;-83
2021/03/13 02:12:26;;;;;;;7.80;1.80;;;5.50;99.90;;;;;;5102158;28;20615;-83
2021/03/13 02:15:01;;;;;;;1.52;1.42;;;5.60;99.90;;;;;;5105836;28;20206;-83
2021/03/13 02:17:38;;;;;;;2.33;1.60;;;5.50;99.90;;;;;;5107419;28;20243;-83
2021/03/13 02:20:41;;;;;;;2.15;1.55;;;5.40;99.90;;;;;;5105650;28;20229;-83
2021/03/13 02:23:11;;;;;;;2.38;2.05;;;5.30;99.90;;;;;;5105810;28;20196;-83
2021/03/13 02:25:58;;;;;;;3.15;2.00;;;5.30;99.90;;;;;;5107904;28;20198;-83
2021/03/13 02:28:31;;;;;;;1.45;1.35;;;5.20;99.90;;;;;;5110134;28;20194;-84
2021/03/13 02:31:00;;;;;;;1.45;1.33;;;5.20;99.90;;;;;;5111918;28;20191;-83
2021/03/13 02:33:32;;;;;;;2.38;1.50;;;5.20;99.90;;;;;;5110796;28;20202;-83
2021/03/13 02:36:02;;;;;;;1.52;1.45;;;5.10;99.90;;;;;;5111200;28;20190;-83
2021/03/13 02:38:35;;;;;;;4.30;2.05;;;5.20;99.90;;;;;;5111675;28;20556;-83
2021/03/13 02:41:10;;;;;;;2.25;1.50;;;5.20;99.90;;;;;;5111487;28;20655;-83
2021/03/13 02:43:41;;;;;;;2.50;1.70;;;5.30;99.90;;;;;;5110454;28;20201;-83
2021/03/13 02:46:10;;;;;;;4.80;1.73;;;5.40;99.90;;;;;;5112247;28;20273;-83
2021/03/13 02:48:39;;;;;;;3.95;2.15;;;5.30;99.90;;;;;;5110824;28;20229;-83
2021/03/13 02:51:07;;;;;;;2.10;1.90;;;5.40;99.90;;;;;;5112287;28;20198;-83
2021/03/13 02:53:36;;;;;;;2.20;2.00;;;5.30;99.90;;;;;;5111085;28;20612;-83
2021/03/13 02:56:05;;;;;;;10.45;4.18;;;5.30;99.90;;;;;;5109349;28;20202;-83
2021/03/13 02:58:35;;;;;;;3.40;1.92;;;5.50;99.90;;;;;;5111885;28;20569;-83
2021/03/13 03:01:03;;;;;;;2.05;1.95;;;5.40;99.90;;;;;;5111553;28;20688;-83
2021/03/13 03:03:34;;;;;;;2.35;2.00;;;5.30;99.90;;;;;;5110333;28;20294;-83
2021/03/13 03:06:02;;;;;;;1.92;1.83;;;5.20;99.90;;;;;;5111472;28;20189;-84
2021/03/13 03:08:32;;;;;;;1.92;1.55;;;5.30;99.90;;;;;;5110684;28;20206;-83
2021/03/13 03:11:00;;;;;;;7.30;2.10;;;5.40;99.90;;;;;;5111655;28;20206;-84
2021/03/13 03:13:29;;;;;;;3.47;1.52;;;5.40;99.90;;;;;;5109828;27;20194;-83
2021/03/13 03:16:00;;;;;;;4.38;1.92;;;5.40;99.90;;;;;;5111707;27;20200;-84
2021/03/13 03:18:29;;;;;;;3.72;1.83;;;5.40;99.90;;;;;;5109632;28;20596;-83
2021/03/13 03:20:57;;;;;;;3.00;2.33;;;5.40;99.90;;;;;;5110753;28;20675;-84
2021/03/13 03:23:24;;;;;;;6.00;2.38;;;5.50;99.90;;;;;;5108361;28;20204;-83
2021/03/13 03:25:52;;;;;;;4.63;2.78;;;5.50;99.90;;;;;;5110604;28;20243;-83
2021/03/13 03:28:20;;;;;;;3.88;2.65;;;5.50;99.90;;;;;;5110987;28;20221;-83
2021/03/13 03:30:48;;;;;;;5.95;2.85;;;5.60;99.90;;;;;;5110998;28;20190;-83
2021/03/13 03:33:15;;;;;;;5.22;3.38;;;5.60;99.90;;;;;;5109848;28;20205;-83
2021/03/13 03:35:42;;;;;;;1.90;1.58;;;5.70;99.90;;;;;;5109559;28;20675;-84
2021/03/13 03:38:11;;;;;;;4.00;2.22;;;5.60;99.90;;;;;;5110687;28;20659;-83
2021/03/13 03:40:39;;;;;;;2.38;2.10;;;5.60;99.90;;;;;;5109800;28;20229;-83
2021/03/13 03:43:13;;;;;;;3.30;1.70;;;5.50;99.90;;;;;;5109545;28;20201;-83
2021/03/13 03:45:42;;;;;;;4.80;1.90;;;5.50;99.90;;;;;;5110196;28;20252;-83
2021/03/13 03:48:11;;;;;;;3.03;2.55;;;5.60;99.90;;;;;;5111275;28;20206;-83
2021/03/13 03:50:38;;;;;;;2.20;1.52;;;5.70;99.90;;;;;;5110435;28;20193;-83
2021/03/13 03:53:11;;;;;;;4.95;1.73;;;5.60;99.90;;;;;;5107707;28;20227;-83
2021/03/13 03:55:42;;;;;;;3.47;1.63;;;5.80;99.90;;;;;;5109551;28;20202;-84
2021/03/13 03:58:10;;;;;;;6.50;2.20;;;5.80;99.90;;;;;;5110843;28;20577;-83
2021/03/13 04:00:37;;;;;;;1.25;1.13;;;5.80;99.90;;;;;;5109967;28;20214;-83
2021/03/13 04:03:10;;;;;;;1.77;1.30;;;5.70;99.90;;;;;;5107099;28;20213;-83
2021/03/13 04:05:39;;;;;;;0.98;0.98;;;5.70;99.90;;;;;;5110033;28;20194;-84
2021/03/13 04:08:07;;;;;;;2.13;1.17;;;5.70;99.90;;;;;;5108837;28;20202;-84
2021/03/13 04:10:35;;;;;;;3.03;1.15;;;5.70;99.90;;;;;;5109694;28;20182;-84
2021/03/13 04:13:02;;;;;;;4.57;1.02;;;5.60;99.90;;;;;;5109768;28;20273;-84
2021/03/13 04:15:30;;;;;;;2.05;1.00;;;5.70;99.90;;;;;;5109979;28;20206;-84
2021/03/13 04:17:57;;;;;;;1.92;1.23;;;5.70;99.90;;;;;;5110249;28;20218;-84
2021/03/13 04:20:24;;;;;;;1.38;1.02;;;5.70;99.90;;;;;;5106406;28;20218;-84
2021/03/13 04:22:54;;;;;;;2.05;1.23;;;5.80;99.90;;;;;;5109441;28;21062;-84
2021/03/13 04:25:21;;;;;;;2.20;1.30;;;5.80;99.90;;;;;;5110258;28;20314;-84
2021/03/13 04:27:48;;;;;;;1.85;0.90;;;6.00;99.90;;;;;;5110272;28;20200;-84
2021/03/13 04:30:17;;;;;;;3.35;2.35;;;6.00;99.90;;;;;;5109583;28;20194;-84
2021/03/13 04:32:48;;;;;;;1.20;1.10;;;5.90;99.90;;;;;;5106874;28;20603;-83
2021/03/13 04:35:16;;;;;;;3.90;0.85;;;6.00;99.90;;;;;;5108133;28;20198;-84
2021/03/13 04:37:44;;;;;;;1.20;0.98;;;6.10;99.90;;;;;;5109184;28;20282;-84
2021/03/13 04:40:13;;;;;;;2.47;0.90;;;6.10;99.90;;;;;;5109898;28;20229;-84
2021/03/13 04:42:42;;;;;;;3.90;1.23;;;6.00;99.90;;;;;;5108989;28;20182;-84
2021/03/13 04:45:11;;;;;;;1.65;1.55;;;6.10;99.90;;;;;;5110239;28;20201;-84
2021/03/13 04:47:42;;;;;;;1.40;1.17;;;6.20;99.90;;;;;;5109922;28;20206;-84
2021/03/13 04:50:10;;;;;;;1.10;1.00;;;6.20;99.90;;;;;;5108852;28;20204;-85
2021/03/13 04:52:38;;;;;;;1.13;0.82;;;6.10;99.90;;;;;;5109729;28;20193;-84
2021/03/13 04:55:06;;;;;;;2.10;1.70;;;6.10;99.90;;;;;;5107531;28;20186;-84
2021/03/13 04:57:33;;;;;;;2.75;1.27;;;6.00;99.90;;;;;;5110325;28;20593;-84
2021/03/13 05:00:00;;;;;;;2.30;1.15;;;6.00;99.90;;;;;;5108857;28;20528;-84
2021/03/13 05:02:28;;;;;;;1.58;1.25;;;5.90;99.90;;;;;;5109110;28;20186;-84
2021/03/13 05:04:55;;;;;;;1.90;0.70;;;5.90;99.90;;;;;;5110669;28;20200;-85
2021/03/13 05:07:21;;;;;;;5.57;1.00;;;6.00;99.90;;;;;;5110919;28;20198;-84
2021/03/13 05:09:47;;;;;;;1.70;1.00;;;6.00;99.90;;;;;;5110007;28;20194;-83
2021/03/13 05:12:14;;;;;;;2.15;1.30;;;6.00;99.90;;;;;;5111226;28;20525;-84
2021/03/13 05:14:40;;;;;;;1.88;1.45;;;6.00;99.90;;;;;;5117321;27;20202;-85
2021/03/13 05:17:07;;;;;;;5.45;1.25;;;6.10;99.90;;;;;;5110948;28;20190;-84
2021/03/13 05:19:34;;;;;;;0.85;0.85;;;6.00;99.90;;;;;;5109866;28;20571;-84
2021/03/13 05:22:01;;;;;;;0.90;0.80;;;6.20;99.90;;;;;;5110266;28;20186;-84
2021/03/13 05:24:27;;;;;;;3.22;0.90;;;6.20;99.80;;;;;;5108326;28;20182;-84
2021/03/13 05:26:54;;;;;;;1.60;0.90;;;6.30;99.80;;;;;;5108071;28;20262;-84
2021/03/13 05:29:21;;;;;;;0.80;0.80;;;6.10;99.20;;;;;;5106219;28;20198;-84
2021/03/13 05:31:47;;;;;;;0.95;0.82;;;6.10;98.80;;;;;;5110341;28;20194;-84
2021/03/13 05:34:13;;;;;;;1.85;0.70;;;6.30;98.80;;;;;;5107793;28;20186;-83
2021/03/13 05:36:41;;;;;;;2.15;1.25;;;6.30;98.70;;;;;;5107981;28;20182;-83
2021/03/13 05:39:07;;;;;;;1.48;0.73;;;6.30;98.30;;;;;;5109450;28;20272;-84
2021/03/13 05:41:36;;;;;;;1.08;0.70;;;6.30;98.20;;;;;;5105435;28;20234;-83
2021/03/13 05:44:05;;;;;;;0.75;0.60;;;6.40;98.20;;;;;;5108415;28;20193;-84
2021/03/13 05:46:35;;;;;;;0.77;0.77;;;6.60;98.10;;;;;;5108644;28;20194;-83
2021/03/13 05:49:04;;;;;;;0.77;0.77;;;6.40;98.10;;;;;;5106485;28;20632;-85
2021/03/13 05:51:34;;;;;;;3.05;0.80;;;6.40;97.90;;;;;;5108568;28;20198;-83
2021/03/13 05:54:03;;;;;;;1.05;0.82;;;6.50;97.60;;;;;;5105684;28;20213;-83
2021/03/13 05:56:30;;;;;;;2.67;0.90;;;6.60;97.50;;;;;;5108782;28;20225;-83
2021/03/13 05:58:58;;;;;;;5.88;1.40;;;6.60;97.40;;;;;;5108913;28;20190;-84
2021/03/13 06:01:26;;;;;;;1.08;0.70;;;6.70;97.40;;;;;;5109493;28;20605;-87
2021/03/13 06:03:53;;;;;;;1.25;1.00;;;6.70;97.00;;;;;;5113348;28;20205;-85
2021/03/13 06:06:21;;;;;;;1.58;0.80;;;6.70;97.20;;;;;;5113225;28;20193;-85
2021/03/13 06:08:48;;;;;;;2.67;0.90;;;6.80;96.70;;;;;;5112471;28;20190;-85
2021/03/13 06:11:17;;;;;;;2.40;0.98;;;6.80;96.40;;;;;;5113577;28;20194;-86
2021/03/13 06:13:43;;;;;;;2.97;1.10;;;6.70;96.10;;;;;;5116271;27;20190;-85
2021/03/13 06:16:10;;;;;;;2.67;1.10;;;6.70;96.00;;;;;;5121659;27;20547;-85
2021/03/13 06:18:56;;;;;;;1.48;1.05;;;6.70;96.10;;;;;;5114283;28;20525;-85
2021/03/13 06:21:24;;;;;;;2.63;1.10;;;6.60;96.10;;;;;;5114259;28;20233;-86
2021/03/13 06:23:55;;;;;;;1.33;1.10;;;6.70;96.20;;;;;;5113640;28;20194;-86
2021/03/13 06:26:23;;;;;;;1.40;0.77;;;6.80;95.80;;;;;;5114266;28;20235;-86
2021/03/13 06:28:51;;;;;;;1.55;0.80;;;6.80;95.60;;;;;;5113051;28;20186;-86
2021/03/13 06:31:22;;;;;;;2.03;1.08;;;6.90;95.40;;;;;;5114012;28;20182;-86
2021/03/13 06:33:49;;;;;;;1.15;1.05;;;6.90;94.80;;;;;;5112682;28;20194;-85
2021/03/13 06:36:21;;;;;;;1.38;0.90;;;6.80;94.80;;;;;;5113826;28;20194;-85
2021/03/13 06:38:48;;;;;;;1.13;1.00;;;6.90;95.40;;;;;;5113657;28;20197;-86
2021/03/13 06:41:17;;;;;;;1.40;0.88;;;7.00;94.70;;;;;;5113023;28;20209;-86
2021/03/13 06:43:45;;;;;;;4.00;1.70;;;6.90;94.40;;;;;;5113135;28;20194;-85
2021/03/13 06:46:13;;;;;;;2.15;1.17;;;7.10;94.30;;;;;;5112670;28;20658;-85
2021/03/13 06:48:42;;;;;;;2.90;0.85;;;7.10;94.10;;;;;;5113713;28;20178;-85
2021/03/13 06:51:20;;;;;;;2.45;1.00;;;7.20;93.80;;;;;;5113234;28;20198;-85
2021/03/13 06:53:59;;;;;;;2.85;1.05;;;7.40;93.90;;;;;;5112670;28;20192;-85
2021/03/13 06:56:27;;;;;;;1.05;0.50;;;7.50;93.30;;;;;;5113421;28;20202;-85
2021/03/13 06:58:54;;;;;;;2.70;0.98;;;7.70;92.70;;;;;;5112847;28;20236;-85
2021/03/13 07:01:27;;;;;;;2.00;1.05;;;7.60;92.40;;;;;;5095128;28;20225;-85
2021/03/13 07:03:53;;;;;;;2.00;1.00;;;7.70;92.20;;;;;;5112850;28;20311;-85
2021/03/13 07:06:20;;;;;;;2.17;1.38;;;7.70;92.20;;;;;;5112605;28;20201;-86
2021/03/13 07:08:48;;;;;;;2.47;1.10;;;7.60;91.80;;;;;;5105080;28;20183;-86
2021/03/13 07:11:17;;;;;;;2.15;0.90;;;7.50;91.60;;;;;;5113301;28;20205;-85
2021/03/13 07:13:46;;;;;;;2.10;0.90;;;7.70;91.60;;;;;;5111315;27;20550;-86
2021/03/13 07:16:28;;;;;;;2.83;0.70;;;7.70;91.50;;;;;;5111435;28;20635;-85
2021/03/13 07:18:56;;;;;;;3.65;0.85;;;7.80;91.40;;;;;;5113031;28;20194;-85
2021/03/13 07:21:23;;;;;;;1.35;0.80;;;7.80;91.10;;;;;;5112746;28;20222;-85
2021/03/13 07:23:54;;;;;;;1.75;0.88;;;7.80;91.20;;;;;;5112328;28;20189;-85
2021/03/13 07:26:24;;;;;;;1.63;0.70;;;7.80;90.40;;;;;;5111828;28;20599;-85
2021/03/13 07:28:53;;;;;;;3.10;0.68;;;7.80;90.00;;;;;;5110678;28;20213;-85
2021/03/13 07:31:20;;;;;;;2.35;0.85;;;7.80;89.50;;;;;;5111366;28;20677;-85
2021/03/13 07:33:49;;;;;;;2.55;0.73;;;8.00;90.50;;;;;;5111830;28;20269;-85
2021/03/13 07:36:18;;;;;;;1.20;0.70;;;8.10;90.00;;;;;;5111200;28;20223;-86
2021/03/13 07:38:47;;;;;;;1.80;0.70;;;8.30;89.60;;;;;;5112200;28;20799;-85
2021/03/13 07:41:17;;;;;;;0.75;0.55;;;8.50;89.00;;;;;;5112129;28;20217;-85
2021/03/13 07:43:44;;;;;;;1.15;0.90;;;8.50;87.00;;;;;;5110897;28;20190;-86
2021/03/13 07:46:11;;;;;;;1.88;0.98;;;8.50;87.80;;;;;;5111189;28;20190;-87
2021/03/13 07:48:40;;;;;;;1.90;0.70;;;8.50;86.10;;;;;;5110221;28;20182;-86
2021/03/13 07:51:08;;;;;;;0.98;0.90;;;8.40;85.30;;;;;;5113928;28;20190;-86
2021/03/13 07:53:38;;;;;;;1.40;0.75;;;8.40;85.40;;;;;;5112986;28;20194;-87
2021/03/13 07:56:08;;;;;;;2.42;1.10;;;8.40;86.40;;;;;;5112606;28;20182;-87
2021/03/13 07:58:38;;;;;;;1.17;0.65;;;8.60;86.60;;;;;;5112700;28;20678;-87
2021/03/13 08:01:05;;;;;;;2.42;0.75;;;8.80;84.30;;;;;;5112263;28;20702;-85
2021/03/13 08:03:40;;;;;;;1.10;0.65;;;8.80;84.20;;;;;;5111156;28;20205;-86
2021/03/13 08:06:09;;;;;;;2.97;0.80;;;8.70;82.80;;;;;;5104535;28;20221;-87
2021/03/13 08:08:42;;;;;;;2.10;0.57;;;8.90;82.50;;;;;;5112013;28;20202;-86
2021/03/13 08:11:10;;;;;;;1.23;0.70;;;8.90;81.10;;;;;;5113086;28;20202;-86
2021/03/13 08:13:58;;;;;;;0.60;0.60;;;8.70;81.40;;;;;;5112713;27;20571;-87
2021/03/13 08:16:33;;;;;;;0.90;0.43;;;8.70;82.10;;;;;;5112876;28;20202;-87
2021/03/13 08:19:00;;;;;;;1.30;0.73;;;8.70;81.60;;;;;;5112433;28;20639;-87
2021/03/13 08:21:47;;;;;;;1.30;0.60;;;8.70;81.70;;;;;;5110143;28;20698;-85
2021/03/13 08:24:14;;;;;;;1.70;0.60;;;8.80;80.90;;;;;;5110687;28;20201;-86
2021/03/13 08:27:18;;;;;;;1.40;0.80;;;8.90;80.90;;;;;;5112413;28;20203;-86
2021/03/13 08:29:53;;;;;;;0.73;0.60;;;8.90;81.20;;;;;;5102854;28;20189;-86
2021/03/13 08:33:04;;;;;;;1.88;0.52;;;8.90;80.80;;;;;;5092493;28;20293;-87
2021/03/13 08:35:53;;;;;;;0.80;0.70;;;8.70;78.40;;;;;;5109591;28;20658;-87
2021/03/13 08:38:55;;;;;;;0.82;0.80;;;8.60;78.00;;;;;;5112456;28;20240;-87
2021/03/13 08:41:51;;;;;;;0.90;0.70;;;8.70;78.90;;;;;;5095924;28;20213;-86
2021/03/13 08:44:30;;;;;;;1.98;1.80;;;8.80;76.60;;;;;;5111406;28;20194;-87
2021/03/13 08:46:57;;;;;;;1.05;0.95;;;9.00;77.10;;;;;;5112135;28;20217;-87
2021/03/13 08:49:43;;;;;;;0.77;0.68;;;9.40;76.50;;;;;;5111398;28;20549;-87
2021/03/13 08:52:25;;;;;;;1.02;0.57;;;9.50;73.90;;;;;;5112451;28;20213;-86
2021/03/13 08:54:56;;;;;;;0.40;0.32;;;9.80;74.80;;;;;;5110609;28;20193;-87
2021/03/13 08:57:44;;;;;;;1.63;0.80;;;9.80;71.70;;;;;;5111417;28;20297;-86
2021/03/13 09:00:17;;;;;;;3.45;1.10;;;9.60;71.00;;;;;;5111470;28;20692;-87
2021/03/13 09:02:45;;;;;;;0.70;0.67;;;9.90;72.40;;;;;;5111294;28;20199;-87
2021/03/13 09:05:14;;;;;;;0.93;0.73;;;10.00;71.60;;;;;;5103841;28;20619;-86
2021/03/13 09:07:45;;;;;;;2.27;1.10;;;9.80;70.20;;;;;;5110887;28;20615;-86
2021/03/13 09:10:13;;;;;;;1.53;1.00;;;9.90;70.10;;;;;;5099115;28;20639;-86
2021/03/13 09:12:41;;;;;;;1.03;0.63;;;10.00;71.20;;;;;;5107389;28;20655;-86
2021/03/13 09:15:09;;;;;;;1.43;0.53;;;10.20;69.80;;;;;;5106949;28;20680;-86
2021/03/13 09:17:36;;;;;;;0.93;0.70;;;10.20;67.80;;;;;;5103570;28;20620;-87
2021/03/13 09:20:07;;;;;;;3.97;0.80;;;10.30;67.80;;;;;;5101526;28;20661;-85
2021/03/13 09:22:33;;;;;;;1.50;1.00;;;10.50;67.40;;;;;;5098708;28;20665;-84
2021/03/13 09:25:02;;;;;;;1.90;0.67;;;10.50;67.00;;;;;;5099566;28;20643;-87
2021/03/13 09:27:32;;;;;;;3.60;0.90;;;10.40;66.90;;;;;;5101460;28;20607;-86
2021/03/13 09:30:00;;;;;;;0.80;0.80;;;10.30;65.50;;;;;;5109542;28;20673;-87
2021/03/13 09:32:27;;;;;;;1.30;1.20;;;10.10;65.40;;;;;;5110195;28;20672;-86
2021/03/13 09:34:56;;;;;;;1.20;0.63;;;10.20;66.20;;;;;;5105438;28;20641;-88
2021/03/13 09:37:25;;;;;;;0.50;0.40;;;10.20;64.70;;;;;;5110861;28;20615;-87
2021/03/13 09:39:53;;;;;;;4.20;0.60;;;10.10;66.20;;;;;;5092283;28;21189;-87
2021/03/13 09:42:21;;;;;;;7.07;0.80;;;10.20;64.50;;;;;;5103272;28;21211;-87
2021/03/13 09:44:50;;;;;;;1.27;0.53;;;10.20;63.80;;;;;;5094747;28;20616;-86
2021/03/13 09:47:19;;;;;;;1.00;0.90;;;10.40;64.10;;;;;;5091022;28;21157;-86
2021/03/13 09:49:49;;;;;;;0.80;0.50;;;10.50;65.50;;;;;;5100229;28;21184;-86
2021/03/13 09:52:15;;;;;;;3.03;0.70;;;10.70;65.10;;;;;;5107787;28;20607;-86
2021/03/13 09:54:43;;;;;;;0.50;0.50;;;10.60;62.80;;;;;;5091229;28;20694;-87
2021/03/13 09:57:14;;;;;;;0.77;0.60;;;10.70;63.40;;;;;;5089824;28;20715;-88
2021/03/13 09:59:42;;;;;;;0.80;0.70;;;10.50;61.80;;;;;;5108140;28;20681;-87
2021/03/13 10:02:10;;;;;;;1.43;0.53;;;10.60;64.70;;;;;;5097264;28;21116;-87
2021/03/13 10:04:37;;;;;;;1.53;0.50;;;10.50;63.40;;;;;;5101697;28;20619;-86
2021/03/13 10:07:04;;;;;;;2.73;0.70;;;10.60;64.30;;;;;;5098517;28;20805;-87
2021/03/13 10:09:30;;;;;;;0.80;0.50;;;10.60;64.50;;;;;;5094523;28;20655;-87
2021/03/13 10:12:05;;;;;;;2.57;0.83;;;10.60;64.30;;;;;;5099029;28;20607;-87
2021/03/13 10:14:39;;;;;;;0.70;0.70;;;10.50;64.50;;;;;;5102262;28;20627;-87
2021/03/13 10:17:06;;;;;;;2.53;1.20;;;10.50;63.50;;;;;;5101113;28;20682;-87
2021/03/13 10:19:41;;;;;;;1.30;1.07;;;10.60;65.30;;;;;;5091300;28;20737;-87
2021/03/13 10:22:09;;;;;;;1.97;1.10;;;10.50;63.60;;;;;;5097619;28;20713;-88
2021/03/13 10:24:47;;;;;;;1.10;0.43;;;10.50;64.40;;;;;;5093688;28;20626;-86
2021/03/13 10:27:26;;;;;;;0.70;0.50;;;10.50;64.50;;;;;;5090489;28;21033;-87
2021/03/13 10:29:54;;;;;;;1.13;0.60;;;10.50;64.60;;;;;;5104156;28;20622;-87
2021/03/13 10:32:27;;;;;;;0.97;0.50;;;10.50;65.00;;;;;;5110837;28;20611;-85
2021/03/13 10:35:09;;;;;;;0.40;0.40;;;10.50;63.80;;;;;;5110367;28;20608;-88
2021/03/13 10:37:37;;;;;;;0.63;0.60;;;10.40;64.40;;;;;;5091922;28;20672;-87
2021/03/13 10:40:05;;;;;;;1.00;0.70;;;10.40;64.80;;;;;;5098699;28;20650;-86
2021/03/13 10:42:34;;;;;;;1.90;0.80;;;10.40;63.40;;;;;;5106395;28;20609;-87
2021/03/13 10:45:26;;;;;;;2.27;1.00;;;10.40;64.60;;;;;;5088989;28;20635;-86
2021/03/13 10:48:03;;;;;;;2.20;0.60;;;10.20;62.90;;;;;;5086990;28;20630;-87
2021/03/13 10:50:31;;;;;;;0.73;0.63;;;10.40;64.10;;;;;;5114592;28;20619;-86
2021/03/13 10:52:57;;;;;;;0.50;0.40;;;10.50;64.20;;;;;;5109877;28;20631;-86
2021/03/13 10:55:38;;;;;;;2.40;0.67;;;10.40;63.60;;;;;;5092448;28;20631;-88
2021/03/13 10:58:05;;;;;;;0.70;0.53;;;10.40;64.00;;;;;;5093527;28;20659;-86
2021/03/13 11:00:31;;;;;;;6.30;0.90;;;10.40;63.00;;;;;;5112899;28;20672;-87
2021/03/13 11:02:58;;;;;;;0.73;0.57;;;10.60;64.10;;;;;;5096207;28;20620;-87
2021/03/13 11:05:24;;;;;;;0.50;0.50;;;10.40;62.90;;;;;;5110122;28;20651;-87
2021/03/13 11:07:52;;;;;;;1.47;0.93;;;10.60;64.00;;;;;;5104111;28;20629;-86
2021/03/13 11:10:21;;;;;;;0.70;0.57;;;10.50;62.90;;;;;;5095590;28;20635;-86
2021/03/13 11:12:47;;;;;;;1.63;0.80;;;10.50;62.60;;;;;;5105042;28;20620;-86
2021/03/13 11:15:14;;;;;;;4.67;0.90;;;10.50;62.40;;;;;;5107323;28;21129;-87
2021/03/13 11:17:41;;;;;;;0.70;0.70;;;10.50;62.30;;;;;;5093526;28;20657;-87
2021/03/13 11:20:09;;;;;;;2.40;0.60;;;10.30;61.10;;;;;;5093532;28;20616;-86
2021/03/13 11:22:35;;;;;;;0.70;0.57;;;10.30;61.00;;;;;;5103149;28;20649;-86
2021/03/13 11:25:03;;;;;;;0.87;0.60;;;10.40;61.30;;;;;;5112517;28;20634;-86
2021/03/13 11:27:29;;;;;;;1.30;0.70;;;10.50;61.10;;;;;;5111427;28;20611;-86
2021/03/13 11:29:56;;;;;;;0.50;0.50;;;10.60;62.10;;;;;;5107969;28;20613;-85
2021/03/13 11:32:23;;;;;;;0.73;0.70;;;10.60;60.70;;;;;;5111835;28;20668;-87
2021/03/13 11:34:49;;;;;;;0.90;0.50;;;10.70;61.10;;;;;;5107111;28;20631;-87
2021/03/13 11:37:16;;;;;;;0.63;0.40;;;10.70;60.20;;;;;;5095304;28;20655;-87
2021/03/13 11:39:42;;;;;;;1.73;0.97;;;10.70;61.50;;;;;;5108472;28;20701;-87
2021/03/13 11:42:10;;;;;;;0.67;0.50;;;10.60;60.30;;;;;;5109599;28;20663;-87
2021/03/13 11:44:36;;;;;;;5.80;0.80;;;10.60;60.20;;;;;;5103028;28;20636;-86
2021/03/13 11:47:03;;;;;;;1.40;0.60;;;10.50;60.00;;;;;;5112886;28;20596;-87
2021/03/13 11:49:29;;;;;;;1.13;0.77;;;10.70;60.20;;;;;;5097342;28;20609;-86
2021/03/13 11:51:56;;;;;;;1.03;0.60;;;10.90;61.40;;;;;;5092667;28;20609;-86
2021/03/13 11:54:22;;;;;;;0.40;0.40;;;11.00;60.50;;;;;;5109779;28;20612;-86
2021/03/13 11:56:49;;;;;;;2.00;0.87;;;11.10;59.80;;;;;;5107625;28;20625;-85
2021/03/13 11:59:16;;;;;;;0.40;0.40;;;10.90;59.80;;;;;;5103887;28;20619;-87
2021/03/13 12:01:42;;;;;;;3.90;0.63;;;10.80;60.40;;;;;;5108713;28;20686;-85
2021/03/13 12:04:09;;;;;;;1.10;0.70;;;10.80;59.30;;;;;;5093719;28;21180;-85
2021/03/13 12:06:36;;;;;;;7.20;3.10;;;10.80;59.30;;;;;;5112253;28;20653;-86
2021/03/13 12:09:04;;;;;;;1.70;0.73;;;10.90;60.30;;;;;;5110645;28;20624;-86
2021/03/13 12:11:31;;;;;;;0.80;0.73;;;10.80;60.10;;;;;;5108414;28;20712;-85
2021/03/13 12:13:57;;;;;;;0.80;0.60;;;10.70;62.30;;;;;;5105418;28;21198;-86
2021/03/13 12:16:25;;;;;;;0.63;0.50;;;10.60;61.00;;;;;;5109917;28;20624;-86
2021/03/13 12:18:51;;;;;;;0.50;0.50;;;10.70;61.70;;;;;;5105026;28;20619;-86
2021/03/13 12:21:18;;;;;;;0.50;0.50;;;10.60;66.70;;;;;;5112027;28;20656;-85
2021/03/13 12:23:45;;;;;;;0.53;0.53;;;10.40;66.00;;;;;;5111154;28;20619;-85
2021/03/13 12:26:11;;;;;;;0.60;0.50;;;10.20;67.10;;;;;;5104532;28;20621;-85
2021/03/13 12:28:38;;;;;;;0.57;0.50;;;10.00;66.30;;;;;;5097821;28;21114;-85
2021/03/13 12:31:04;;;;;;;0.50;0.50;;;10.00;68.40;;;;;;5093025;28;20720;-86
2021/03/13 12:33:32;;;;;;;0.40;0.33;;;10.10;69.60;;;;;;5108946;28;21073;-86
2021/03/13 12:35:58;;;;;;;1.40;0.93;;;10.00;69.90;;;;;;5111869;28;20638;-86
2021/03/13 12:38:27;;;;;;;0.87;0.70;;;10.20;72.00;;;;;;5092367;28;20763;-85
2021/03/13 12:40:54;;;;;;;0.40;0.40;;;10.60;72.20;;;;;;5092349;28;20672;-85
2021/03/13 12:43:20;;;;;;;0.50;0.40;;;10.60;70.30;;;;;;5094068;28;20617;-85
2021/03/13 12:45:47;;;;;;;0.60;0.60;;;10.80;70.40;;;;;;5111747;28;20711;-86
2021/03/13 12:48:14;;;;;;;0.60;0.60;;;10.80;69.80;;;;;;5110008;28;21266;-85
2021/03/13 12:50:42;;;;;;;0.60;0.60;;;10.80;68.60;;;;;;5112404;28;20627;-86
2021/03/13 12:53:09;;;;;;;2.93;1.10;;;10.80;69.40;;;;;;5109494;28;20672;-85
2021/03/13 12:55:35;;;;;;;0.70;0.50;;;10.60;70.40;;;;;;5111578;28;20668;-85
2021/03/13 12:58:03;;;;;;;1.73;1.17;;;10.40;71.00;;;;;;5109226;28;20600;-84
2021/03/13 13:00:29;;;;;;;1.77;0.90;;;10.20;71.40;;;;;;5097593;28;20625;-85
2021/03/13 13:02:59;;;;;;;0.50;0.50;;;9.80;74.60;;;;;;5091709;28;20632;-84
2021/03/13 13:05:26;;;;;;;0.50;0.50;;;9.70;76.40;;;;;;5090774;28;20719;-84